Main page
METAR-TAF:

METAR-TAF

Airports :

Deauville – Normandie Airport

Deauville, France

latitude: 49-21-55N, longitude: 000-09-16E, elevation: 146 m

Current weather observation

The report was made 36 minutes ago, at 21:00 UTC
Wind 7 kt from the Southwest
Temperature 6°C
Humidity 70%
Pressure 1013 hPa
Visibility 10 km or more
no clouds below 1500 m and no cumulonimbus

METAR: LFRG 052100Z AUTO 23007KT CAVOK 06/01 Q1013

Time: 23:36 (21:36 UTC)

Forecast

The report was made 7 hours and 36 minutes ago, at 14:00 UTC
Forecast valid from 05 at 15 UTC to 05 at 24 UTC
Wind 15 kt from the West
Visibility 10 km or more
Scattered clouds at a height of 3000 ft
Temporary
from 05 at 15 UTC to 05 at 18 UTC
Wind 15 kt from the West with gusts up to 30 kt
Visibility: 4000 m
Broken clouds at a height of 2500 ft, Towering cumulus.
rain showers
Becoming
from 05 at 18 UTC to 05 at 21 UTC
Wind 15 kt from the West

TAF: LFRG 051400Z 0515/0524 28015KT 9999 SCT030 TEMPO 0515/0518 28015G30KT 4000 SHRA BKN025TCU BECMG 0518/0521 28015KT

Weather observations and forecasts of more than 4000 airports (METAR and TAF reports).

The available stations are represented by yellow and red dots on the map.

Hover mouse over dot to see the name of the station.

Then click to see weather observations and forecasts.

To change the map : click on the green buttons with a black cross to zoom in, on the green button with a dash to zoom out, or on the green arrows for adjacent maps.


METAR-TAF: